sensor_id;sensor_type;location;lat;lon;timestamp;temperature;humidity
29539;DHT22;16482;51.046;4.498;2023-06-22T00:01:04;26.70;49.00
29539;DHT22;16482;51.046;4.498;2023-06-22T00:03:31;26.70;49.00
29539;DHT22;16482;51.046;4.498;2023-06-22T00:06:06;26.70;49.10
29539;DHT22;16482;51.046;4.498;2023-06-22T00:08:32;26.70;49.10
29539;DHT22;16482;51.046;4.498;2023-06-22T00:11:04;26.70;49.20
29539;DHT22;16482;51.046;4.498;2023-06-22T00:13:31;26.70;49.20
29539;DHT22;16482;51.046;4.498;2023-06-22T00:16:05;26.70;49.20
29539;DHT22;16482;51.046;4.498;2023-06-22T00:18:31;26.70;49.10
29539;DHT22;16482;51.046;4.498;2023-06-22T00:21:06;26.70;49.10
29539;DHT22;16482;51.046;4.498;2023-06-22T01:01:03;26.70;48.80
29539;DHT22;16482;51.046;4.498;2023-06-22T01:03:30;26.70;48.70
29539;DHT22;16482;51.046;4.498;2023-06-22T01:06:05;26.70;48.70
29539;DHT22;16482;51.046;4.498;2023-06-22T01:11:36;26.70;48.50
29539;DHT22;16482;51.046;4.498;2023-06-22T01:14:10;26.70;48.40
29539;DHT22;16482;51.046;4.498;2023-06-22T01:16:41;26.70;48.40
29539;DHT22;16482;51.046;4.498;2023-06-22T01:21:51;26.70;48.30
29539;DHT22;16482;51.046;4.498;2023-06-22T01:24:33;26.70;48.40
29539;DHT22;16482;51.046;4.498;2023-06-22T01:27:25;26.70;48.20
29539;DHT22;16482;51.046;4.498;2023-06-22T01:30:24;26.70;48.20
29539;DHT22;16482;51.046;4.498;2023-06-22T01:32:53;26.70;48.30
29539;DHT22;16482;51.046;4.498;2023-06-22T01:35:19;26.70;48.30
29539;DHT22;16482;51.046;4.498;2023-06-22T01:37:46;26.70;48.20
29539;DHT22;16482;51.046;4.498;2023-06-22T01:40:13;26.70;48.20
29539;DHT22;16482;51.046;4.498;2023-06-22T01:42:41;26.70;48.20
29539;DHT22;16482;51.046;4.498;2023-06-22T01:45:11;26.70;48.20
29539;DHT22;16482;51.046;4.498;2023-06-22T01:47:40;26.70;48.10
29539;DHT22;16482;51.046;4.498;2023-06-22T01:50:07;26.70;48.10
29539;DHT22;16482;51.046;4.498;2023-06-22T01:52:33;26.70;48.00
29539;DHT22;16482;51.046;4.498;2023-06-22T01:55:00;26.70;48.00
29539;DHT22;16482;51.046;4.498;2023-06-22T01:57:27;26.70;47.90
29539;DHT22;16482;51.046;4.498;2023-06-22T02:02:24;26.70;48.00
29539;DHT22;16482;51.046;4.498;2023-06-22T02:04:59;26.70;48.00
29539;DHT22;16482;51.046;4.498;2023-06-22T02:07:32;26.70;47.90
29539;DHT22;16482;51.046;4.498;2023-06-22T02:10:00;26.70;47.90
29539;DHT22;16482;51.046;4.498;2023-06-22T02:12:28;26.70;47.90
29539;DHT22;16482;51.046;4.498;2023-06-22T02:14:55;26.60;47.80
29539;DHT22;16482;51.046;4.498;2023-06-22T02:17:22;26.70;47.90
29539;DHT22;16482;51.046;4.498;2023-06-22T02:19:49;26.70;47.90
29539;DHT22;16482;51.046;4.498;2023-06-22T02:22:14;26.70;47.90
29539;DHT22;16482;51.046;4.498;2023-06-22T02:24:40;26.70;47.80
29539;DHT22;16482;51.046;4.498;2023-06-22T02:27:06;26.70;47.80
29539;DHT22;16482;51.046;4.498;2023-06-22T02:29:32;26.70;47.80
29539;DHT22;16482;51.046;4.498;2023-06-22T02:31:58;26.70;47.70
29539;DHT22;16482;51.046;4.498;2023-06-22T02:34:24;26.70;47.70
29539;DHT22;16482;51.046;4.498;2023-06-22T02:36:50;26.70;47.70
29539;DHT22;16482;51.046;4.498;2023-06-22T02:39:26;26.70;47.70
29539;DHT22;16482;51.046;4.498;2023-06-22T02:41:53;26.70;47.70
29539;DHT22;16482;51.046;4.498;2023-06-22T02:44:21;26.70;47.70
29539;DHT22;16482;51.046;4.498;2023-06-22T02:46:47;26.60;47.60
29539;DHT22;16482;51.046;4.498;2023-06-22T02:49:22;26.70;47.60
29539;DHT22;16482;51.046;4.498;2023-06-22T02:51:51;26.70;47.60
29539;DHT22;16482;51.046;4.498;2023-06-22T02:54:17;26.70;47.60
29539;DHT22;16482;51.046;4.498;2023-06-22T02:56:43;26.70;47.60
29539;DHT22;16482;51.046;4.498;2023-06-22T02:59:12;26.60;47.50
29539;DHT22;16482;51.046;4.498;2023-06-22T03:01:38;26.70;47.60
29539;DHT22;16482;51.046;4.498;2023-06-22T03:04:06;26.70;47.50
29539;DHT22;16482;51.046;4.498;2023-06-22T03:06:32;26.70;47.50
29539;DHT22;16482;51.046;4.498;2023-06-22T03:09:03;26.60;47.40
29539;DHT22;16482;51.046;4.498;2023-06-22T03:11:31;26.60;47.40
29539;DHT22;16482;51.046;4.498;2023-06-22T03:13:57;26.60;47.40
29539;DHT22;16482;51.046;4.498;2023-06-22T03:16:23;26.60;47.50
29539;DHT22;16482;51.046;4.498;2023-06-22T03:18:49;26.70;47.50
29539;DHT22;16482;51.046;4.498;2023-06-22T03:21:14;26.60;47.40
29539;DHT22;16482;51.046;4.498;2023-06-22T03:23:42;26.60;47.40
29539;DHT22;16482;51.046;4.498;2023-06-22T03:26:09;26.60;47.40
29539;DHT22;16482;51.046;4.498;2023-06-22T03:28:35;26.60;47.40
29539;DHT22;16482;51.046;4.498;2023-06-22T03:31:01;26.60;47.40
29539;DHT22;16482;51.046;4.498;2023-06-22T03:33:26;26.60;47.40
29539;DHT22;16482;51.046;4.498;2023-06-22T03:35:52;26.60;47.40
29539;DHT22;16482;51.046;4.498;2023-06-22T03:38:20;26.60;47.30
29539;DHT22;16482;51.046;4.498;2023-06-22T03:40:46;26.60;47.30
29539;DHT22;16482;51.046;4.498;2023-06-22T03:43:13;26.60;47.40
29539;DHT22;16482;51.046;4.498;2023-06-22T03:45:38;26.60;47.40
29539;DHT22;16482;51.046;4.498;2023-06-22T03:48:05;26.60;47.30
29539;DHT22;16482;51.046;4.498;2023-06-22T03:50:31;26.60;47.30
29539;DHT22;16482;51.046;4.498;2023-06-22T03:52:57;26.60;47.30
29539;DHT22;16482;51.046;4.498;2023-06-22T03:55:23;26.60;47.30
29539;DHT22;16482;51.046;4.498;2023-06-22T03:57:49;26.60;47.30
29539;DHT22;16482;51.046;4.498;2023-06-22T04:00:15;26.60;47.30
29539;DHT22;16482;51.046;4.498;2023-06-22T04:02:43;26.60;47.20
29539;DHT22;16482;51.046;4.498;2023-06-22T04:05:12;26.60;47.30
29539;DHT22;16482;51.046;4.498;2023-06-22T04:07:37;26.60;47.30
29539;DHT22;16482;51.046;4.498;2023-06-22T04:10:06;26.60;47.40
29539;DHT22;16482;51.046;4.498;2023-06-22T04:12:32;26.60;47.30
29539;DHT22;16482;51.046;4.498;2023-06-22T04:14:58;26.60;47.20
29539;DHT22;16482;51.046;4.498;2023-06-22T04:17:24;26.60;47.30
29539;DHT22;16482;51.046;4.498;2023-06-22T04:19:51;26.60;47.20
29539;DHT22;16482;51.046;4.498;2023-06-22T04:22:17;26.60;47.20
29539;DHT22;16482;51.046;4.498;2023-06-22T04:24:43;26.60;47.30
29539;DHT22;16482;51.046;4.498;2023-06-22T04:27:09;26.60;47.30
29539;DHT22;16482;51.046;4.498;2023-06-22T04:29:35;26.60;47.30
29539;DHT22;16482;51.046;4.498;2023-06-22T04:32:01;26.60;47.30
29539;DHT22;16482;51.046;4.498;2023-06-22T04:34:30;26.60;47.30
29539;DHT22;16482;51.046;4.498;2023-06-22T04:36:57;26.60;47.30
29539;DHT22;16482;51.046;4.498;2023-06-22T04:39:23;26.60;47.30
29539;DHT22;16482;51.046;4.498;2023-06-22T04:41:51;26.60;47.30
29539;DHT22;16482;51.046;4.498;2023-06-22T04:44:22;26.60;47.40
29539;DHT22;16482;51.046;4.498;2023-06-22T04:46:53;26.60;47.40
29539;DHT22;16482;51.046;4.498;2023-06-22T04:49:34;26.60;47.40
29539;DHT22;16482;51.046;4.498;2023-06-22T04:52:07;26.60;47.40
29539;DHT22;16482;51.046;4.498;2023-06-22T04:54:35;26.60;47.40
29539;DHT22;16482;51.046;4.498;2023-06-22T04:57:02;26.60;47.50
29539;DHT22;16482;51.046;4.498;2023-06-22T04:59:30;26.60;47.50
29539;DHT22;16482;51.046;4.498;2023-06-22T05:02:01;26.60;47.50
29539;DHT22;16482;51.046;4.498;2023-06-22T05:04:30;26.60;47.50
29539;DHT22;16482;51.046;4.498;2023-06-22T05:07:00;26.60;47.60
29539;DHT22;16482;51.046;4.498;2023-06-22T05:09:26;26.60;47.60
29539;DHT22;16482;51.046;4.498;2023-06-22T05:11:52;26.60;47.60
29539;DHT22;16482;51.046;4.498;2023-06-22T05:14:22;26.60;47.60
29539;DHT22;16482;51.046;4.498;2023-06-22T05:16:50;26.60;47.60
29539;DHT22;16482;51.046;4.498;2023-06-22T05:19:21;26.60;47.70
29539;DHT22;16482;51.046;4.498;2023-06-22T05:21:46;26.60;47.70
29539;DHT22;16482;51.046;4.498;2023-06-22T05:24:12;26.60;47.70
29539;DHT22;16482;51.046;4.498;2023-06-22T05:26:38;26.60;47.70
29539;DHT22;16482;51.046;4.498;2023-06-22T05:29:04;26.60;47.70
29539;DHT22;16482;51.046;4.498;2023-06-22T05:31:30;26.60;47.80
29539;DHT22;16482;51.046;4.498;2023-06-22T05:33:56;26.60;47.80
29539;DHT22;16482;51.046;4.498;2023-06-22T05:36:22;26.60;47.80
29539;DHT22;16482;51.046;4.498;2023-06-22T05:38:53;26.60;47.80
29539;DHT22;16482;51.046;4.498;2023-06-22T05:41:19;26.60;47.80
29539;DHT22;16482;51.046;4.498;2023-06-22T05:43:45;26.60;47.80
29539;DHT22;16482;51.046;4.498;2023-06-22T05:46:10;26.60;47.80
29539;DHT22;16482;51.046;4.498;2023-06-22T05:48:36;26.60;47.80
29539;DHT22;16482;51.046;4.498;2023-06-22T05:51:02;26.60;47.90
29539;DHT22;16482;51.046;4.498;2023-06-22T05:53:30;26.60;47.90
29539;DHT22;16482;51.046;4.498;2023-06-22T05:55:55;26.60;48.00
29539;DHT22;16482;51.046;4.498;2023-06-22T05:58:40;26.60;48.60
29539;DHT22;16482;51.046;4.498;2023-06-22T06:01:06;26.50;48.80
29539;DHT22;16482;51.046;4.498;2023-06-22T06:03:32;26.40;49.10
29539;DHT22;16482;51.046;4.498;2023-06-22T06:06:02;26.40;49.40
29539;DHT22;16482;51.046;4.498;2023-06-22T06:08:30;26.30;49.60
29539;DHT22;16482;51.046;4.498;2023-06-22T06:11:00;26.30;49.80
29539;DHT22;16482;51.046;4.498;2023-06-22T06:13:26;26.30;50.00
29539;DHT22;16482;51.046;4.498;2023-06-22T06:15:56;26.20;50.10
29539;DHT22;16482;51.046;4.498;2023-06-22T06:18:22;26.20;50.30
29539;DHT22;16482;51.046;4.498;2023-06-22T06:20:49;26.20;50.40
29539;DHT22;16482;51.046;4.498;2023-06-22T06:23:15;26.10;50.50
29539;DHT22;16482;51.046;4.498;2023-06-22T06:25:41;26.10;50.60
29539;DHT22;16482;51.046;4.498;2023-06-22T06:28:06;26.10;50.80
29539;DHT22;16482;51.046;4.498;2023-06-22T06:30:32;26.10;51.00
29539;DHT22;16482;51.046;4.498;2023-06-22T06:32:58;26.10;51.20
29539;DHT22;16482;51.046;4.498;2023-06-22T06:35:25;26.10;51.20
29539;DHT22;16482;51.046;4.498;2023-06-22T06:37:51;26.10;51.30
29539;DHT22;16482;51.046;4.498;2023-06-22T06:40:17;26.00;51.30
29539;DHT22;16482;51.046;4.498;2023-06-22T06:42:48;26.00;51.30
29539;DHT22;16482;51.046;4.498;2023-06-22T06:45:18;26.00;51.30
29539;DHT22;16482;51.046;4.498;2023-06-22T06:47:44;25.90;51.40
29539;DHT22;16482;51.046;4.498;2023-06-22T06:50:12;26.00;51.30
29539;DHT22;16482;51.046;4.498;2023-06-22T06:52:41;26.10;51.20
29539;DHT22;16482;51.046;4.498;2023-06-22T06:55:25;26.10;51.10
29539;DHT22;16482;51.046;4.498;2023-06-22T06:57:51;26.10;51.20
29539;DHT22;16482;51.046;4.498;2023-06-22T07:00:18;26.00;51.10
29539;DHT22;16482;51.046;4.498;2023-06-22T07:02:45;26.10;51.10
29539;DHT22;16482;51.046;4.498;2023-06-22T07:05:13;26.00;51.10
29539;DHT22;16482;51.046;4.498;2023-06-22T07:07:42;26.00;51.20
29539;DHT22;16482;51.046;4.498;2023-06-22T07:10:12;26.10;51.30
29539;DHT22;16482;51.046;4.498;2023-06-22T07:12:37;26.10;51.40
29539;DHT22;16482;51.046;4.498;2023-06-22T07:15:05;26.10;51.40
29539;DHT22;16482;51.046;4.498;2023-06-22T07:17:31;26.10;51.30
29539;DHT22;16482;51.046;4.498;2023-06-22T07:19:57;26.10;51.50
29539;DHT22;16482;51.046;4.498;2023-06-22T07:22:23;26.10;51.40
29539;DHT22;16482;51.046;4.498;2023-06-22T07:24:49;26.10;51.60
29539;DHT22;16482;51.046;4.498;2023-06-22T07:27:15;26.10;51.60
29539;DHT22;16482;51.046;4.498;2023-06-22T07:29:44;26.10;52.30
29539;DHT22;16482;51.046;4.498;2023-06-22T07:32:10;26.10;51.80
29539;DHT22;16482;51.046;4.498;2023-06-22T07:34:36;26.10;51.90
29539;DHT22;16482;51.046;4.498;2023-06-22T07:37:02;26.00;52.10
29539;DHT22;16482;51.046;4.498;2023-06-22T07:39:30;26.00;52.00
29539;DHT22;16482;51.046;4.498;2023-06-22T07:41:55;26.00;52.00
29539;DHT22;16482;51.046;4.498;2023-06-22T07:44:21;26.00;51.80
29539;DHT22;16482;51.046;4.498;2023-06-22T07:46:47;26.00;51.80
29539;DHT22;16482;51.046;4.498;2023-06-22T07:49:14;26.00;51.60
29539;DHT22;16482;51.046;4.498;2023-06-22T07:51:40;26.00;51.60
29539;DHT22;16482;51.046;4.498;2023-06-22T07:54:06;26.00;51.50
29539;DHT22;16482;51.046;4.498;2023-06-22T07:56:34;26.10;51.50
29539;DHT22;16482;51.046;4.498;2023-06-22T07:59:00;26.10;51.30
29539;DHT22;16482;51.046;4.498;2023-06-22T08:01:27;26.10;51.20
29539;DHT22;16482;51.046;4.498;2023-06-22T08:03:53;26.20;51.20
29539;DHT22;16482;51.046;4.498;2023-06-22T08:06:20;26.10;51.10
29539;DHT22;16482;51.046;4.498;2023-06-22T08:08:46;26.10;51.10
29539;DHT22;16482;51.046;4.498;2023-06-22T08:11:14;26.10;51.00
29539;DHT22;16482;51.046;4.498;2023-06-22T08:13:40;26.10;51.10
29539;DHT22;16482;51.046;4.498;2023-06-22T08:16:06;26.10;51.10
29539;DHT22;16482;51.046;4.498;2023-06-22T08:18:33;26.10;51.10
29539;DHT22;16482;51.046;4.498;2023-06-22T08:21:03;26.10;51.00
29539;DHT22;16482;51.046;4.498;2023-06-22T08:23:31;26.10;51.10
29539;DHT22;16482;51.046;4.498;2023-06-22T08:25:57;26.10;51.00
29539;DHT22;16482;51.046;4.498;2023-06-22T08:28:23;26.10;50.90
29539;DHT22;16482;51.046;4.498;2023-06-22T08:30:48;26.10;51.00
29539;DHT22;16482;51.046;4.498;2023-06-22T08:33:14;26.10;51.00
29539;DHT22;16482;51.046;4.498;2023-06-22T08:35:41;26.10;51.00
29539;DHT22;16482;51.046;4.498;2023-06-22T08:38:07;26.10;50.90
29539;DHT22;16482;51.046;4.498;2023-06-22T08:40:34;26.10;50.90
29539;DHT22;16482;51.046;4.498;2023-06-22T08:43:00;26.20;51.60
29539;DHT22;16482;51.046;4.498;2023-06-22T08:45:26;26.20;51.00
29539;DHT22;16482;51.046;4.498;2023-06-22T08:47:51;26.20;51.10
29539;DHT22;16482;51.046;4.498;2023-06-22T08:50:18;26.20;51.10
29539;DHT22;16482;51.046;4.498;2023-06-22T08:52:44;26.20;51.20
29539;DHT22;16482;51.046;4.498;2023-06-22T08:55:13;26.20;51.20
29539;DHT22;16482;51.046;4.498;2023-06-22T08:57:42;26.20;51.20
29539;DHT22;16482;51.046;4.498;2023-06-22T09:00:09;26.20;51.20
29539;DHT22;16482;51.046;4.498;2023-06-22T09:02:42;26.30;51.20
29539;DHT22;16482;51.046;4.498;2023-06-22T09:05:08;26.30;51.10
29539;DHT22;16482;51.046;4.498;2023-06-22T09:07:34;26.30;51.20
29539;DHT22;16482;51.046;4.498;2023-06-22T09:10:00;26.30;51.00
29539;DHT22;16482;51.046;4.498;2023-06-22T09:12:26;26.40;51.10
29539;DHT22;16482;51.046;4.498;2023-06-22T09:14:53;26.40;51.10
29539;DHT22;16482;51.046;4.498;2023-06-22T09:17:19;26.40;50.90
29539;DHT22;16482;51.046;4.498;2023-06-22T09:19:46;26.40;50.90
29539;DHT22;16482;51.046;4.498;2023-06-22T09:22:13;26.40;50.70
29539;DHT22;16482;51.046;4.498;2023-06-22T09:24:39;26.40;50.80
29539;DHT22;16482;51.046;4.498;2023-06-22T09:27:05;26.40;50.80
29539;DHT22;16482;51.046;4.498;2023-06-22T09:29:31;26.40;50.80
29539;DHT22;16482;51.046;4.498;2023-06-22T09:31:59;26.40;50.70
29539;DHT22;16482;51.046;4.498;2023-06-22T09:34:26;26.50;50.80
29539;DHT22;16482;51.046;4.498;2023-06-22T09:36:52;26.50;51.40
29539;DHT22;16482;51.046;4.498;2023-06-22T09:39:22;26.50;50.80
29539;DHT22;16482;51.046;4.498;2023-06-22T09:41:48;26.50;50.80
29539;DHT22;16482;51.046;4.498;2023-06-22T09:44:17;26.50;50.80
29539;DHT22;16482;51.046;4.498;2023-06-22T09:46:44;26.50;50.80
29539;DHT22;16482;51.046;4.498;2023-06-22T09:49:09;26.50;50.80
29539;DHT22;16482;51.046;4.498;2023-06-22T09:51:35;26.50;50.90
29539;DHT22;16482;51.046;4.498;2023-06-22T09:54:01;26.50;50.90
29539;DHT22;16482;51.046;4.498;2023-06-22T09:56:27;26.60;51.00
29539;DHT22;16482;51.046;4.498;2023-06-22T09:58:54;26.60;51.10
29539;DHT22;16482;51.046;4.498;2023-06-22T10:01:20;26.60;51.30
29539;DHT22;16482;51.046;4.498;2023-06-22T10:03:46;26.60;51.50
29539;DHT22;16482;51.046;4.498;2023-06-22T10:06:12;26.60;51.50
29539;DHT22;16482;51.046;4.498;2023-06-22T10:08:38;26.60;51.60
29539;DHT22;16482;51.046;4.498;2023-06-22T10:11:04;26.50;51.60
29539;DHT22;16482;51.046;4.498;2023-06-22T10:13:33;26.50;51.70
29539;DHT22;16482;51.046;4.498;2023-06-22T10:15:59;26.50;52.00
29539;DHT22;16482;51.046;4.498;2023-06-22T10:18:25;26.50;52.00
29539;DHT22;16482;51.046;4.498;2023-06-22T10:20:51;26.50;52.10
29539;DHT22;16482;51.046;4.498;2023-06-22T10:23:19;26.50;52.20
29539;DHT22;16482;51.046;4.498;2023-06-22T10:25:45;26.50;52.40
29539;DHT22;16482;51.046;4.498;2023-06-22T10:28:11;26.50;52.50
29539;DHT22;16482;51.046;4.498;2023-06-22T10:30:41;26.50;52.70
29539;DHT22;16482;51.046;4.498;2023-06-22T10:33:07;26.50;52.70
29539;DHT22;16482;51.046;4.498;2023-06-22T10:35:46;26.50;52.80
29539;DHT22;16482;51.046;4.498;2023-06-22T10:38:12;26.50;52.90
29539;DHT22;16482;51.046;4.498;2023-06-22T10:40:37;26.40;53.00
29539;DHT22;16482;51.046;4.498;2023-06-22T10:43:05;26.40;53.00
29539;DHT22;16482;51.046;4.498;2023-06-22T10:45:30;26.50;53.00
29539;DHT22;16482;51.046;4.498;2023-06-22T10:47:57;26.50;53.00
29539;DHT22;16482;51.046;4.498;2023-06-22T10:50:24;26.40;53.00
29539;DHT22;16482;51.046;4.498;2023-06-22T10:52:51;26.50;53.00
29539;DHT22;16482;51.046;4.498;2023-06-22T10:55:17;26.50;53.10
29539;DHT22;16482;51.046;4.498;2023-06-22T10:57:42;26.50;53.10
29539;DHT22;16482;51.046;4.498;2023-06-22T11:00:11;26.50;53.00
29539;DHT22;16482;51.046;4.498;2023-06-22T11:02:37;26.50;53.00
29539;DHT22;16482;51.046;4.498;2023-06-22T11:05:03;26.50;53.10
29539;DHT22;16482;51.046;4.498;2023-06-22T11:07:29;26.50;53.10
29539;DHT22;16482;51.046;4.498;2023-06-22T11:09:55;26.50;53.10
29539;DHT22;16482;51.046;4.498;2023-06-22T11:12:21;26.50;53.10
29539;DHT22;16482;51.046;4.498;2023-06-22T11:14:47;26.50;53.10
29539;DHT22;16482;51.046;4.498;2023-06-22T11:17:14;26.50;53.10
29539;DHT22;16482;51.046;4.498;2023-06-22T11:19:40;26.50;53.10
29539;DHT22;16482;51.046;4.498;2023-06-22T11:22:06;26.50;53.10
29539;DHT22;16482;51.046;4.498;2023-06-22T11:24:31;26.50;53.10
29539;DHT22;16482;51.046;4.498;2023-06-22T11:26:58;26.50;53.10
29539;DHT22;16482;51.046;4.498;2023-06-22T11:29:24;26.50;53.10
29539;DHT22;16482;51.046;4.498;2023-06-22T11:31:54;26.50;53.10
29539;DHT22;16482;51.046;4.498;2023-06-22T11:34:20;26.60;53.10
29539;DHT22;16482;51.046;4.498;2023-06-22T11:36:51;26.50;53.20
29539;DHT22;16482;51.046;4.498;2023-06-22T11:39:17;26.50;53.30
29539;DHT22;16482;51.046;4.498;2023-06-22T11:41:43;26.50;53.10
29539;DHT22;16482;51.046;4.498;2023-06-22T11:44:09;26.50;53.10
29539;DHT22;16482;51.046;4.498;2023-06-22T11:46:34;26.50;53.10
29539;DHT22;16482;51.046;4.498;2023-06-22T11:49:01;26.50;53.10
29539;DHT22;16482;51.046;4.498;2023-06-22T11:51:27;26.50;53.00
29539;DHT22;16482;51.046;4.498;2023-06-22T11:53:53;26.50;53.10
29539;DHT22;16482;51.046;4.498;2023-06-22T11:56:19;26.50;53.10
29539;DHT22;16482;51.046;4.498;2023-06-22T11:58:45;26.50;53.10
29539;DHT22;16482;51.046;4.498;2023-06-22T12:01:11;26.50;53.70
29539;DHT22;16482;51.046;4.498;2023-06-22T12:03:40;26.50;53.10
29539;DHT22;16482;51.046;4.498;2023-06-22T12:06:06;26.50;53.20
29539;DHT22;16482;51.046;4.498;2023-06-22T12:08:32;26.50;53.20
29539;DHT22;16482;51.046;4.498;2023-06-22T12:10:58;26.50;53.20
29539;DHT22;16482;51.046;4.498;2023-06-22T12:13:24;26.50;53.30
29539;DHT22;16482;51.046;4.498;2023-06-22T12:15:49;26.50;53.50
29539;DHT22;16482;51.046;4.498;2023-06-22T12:18:18;26.50;53.50
29539;DHT22;16482;51.046;4.498;2023-06-22T12:20:46;26.50;53.50
29539;DHT22;16482;51.046;4.498;2023-06-22T12:23:12;26.50;53.50
29539;DHT22;16482;51.046;4.498;2023-06-22T12:25:37;26.50;53.60
29539;DHT22;16482;51.046;4.498;2023-06-22T12:28:03;26.50;53.60
29539;DHT22;16482;51.046;4.498;2023-06-22T12:30:30;26.40;53.70
29539;DHT22;16482;51.046;4.498;2023-06-22T12:32:56;26.50;53.60
29539;DHT22;16482;51.046;4.498;2023-06-22T12:35:22;26.40;53.70
29539;DHT22;16482;51.046;4.498;2023-06-22T12:37:48;26.50;53.80
29539;DHT22;16482;51.046;4.498;2023-06-22T12:40:13;26.50;53.90
29539;DHT22;16482;51.046;4.498;2023-06-22T12:42:40;26.50;53.90
29539;DHT22;16482;51.046;4.498;2023-06-22T12:45:06;26.50;53.80
29539;DHT22;16482;51.046;4.498;2023-06-22T12:47:32;26.50;54.00
29539;DHT22;16482;51.046;4.498;2023-06-22T12:49:58;26.40;53.90
29539;DHT22;16482;51.046;4.498;2023-06-22T12:52:23;26.50;54.00
29539;DHT22;16482;51.046;4.498;2023-06-22T12:54:49;26.50;53.90
29539;DHT22;16482;51.046;4.498;2023-06-22T12:57:16;26.40;53.80
29539;DHT22;16482;51.046;4.498;2023-06-22T12:59:43;26.40;53.90
29539;DHT22;16482;51.046;4.498;2023-06-22T13:02:09;26.40;53.90
29539;DHT22;16482;51.046;4.498;2023-06-22T13:04:34;26.50;53.90
29539;DHT22;16482;51.046;4.498;2023-06-22T13:07:00;26.40;53.90
29539;DHT22;16482;51.046;4.498;2023-06-22T13:09:26;26.40;54.00
29539;DHT22;16482;51.046;4.498;2023-06-22T13:11:52;26.40;53.90
29539;DHT22;16482;51.046;4.498;2023-06-22T13:14:18;26.40;54.00
29539;DHT22;16482;51.046;4.498;2023-06-22T13:17:18;26.40;53.90
29539;DHT22;16482;51.046;4.498;2023-06-22T13:19:44;26.50;53.90
29539;DHT22;16482;51.046;4.498;2023-06-22T13:24:56;26.40;53.90
29539;DHT22;16482;51.046;4.498;2023-06-22T13:27:23;26.40;54.00
29539;DHT22;16482;51.046;4.498;2023-06-22T13:29:49;26.40;54.00
29539;DHT22;16482;51.046;4.498;2023-06-22T13:32:15;26.40;53.80
29539;DHT22;16482;51.046;4.498;2023-06-22T13:35:00;26.40;53.90
29539;DHT22;16482;51.046;4.498;2023-06-22T13:37:26;26.50;54.00
29539;DHT22;16482;51.046;4.498;2023-06-22T13:39:52;26.40;54.00
29539;DHT22;16482;51.046;4.498;2023-06-22T13:42:17;26.40;53.90
29539;DHT22;16482;51.046;4.498;2023-06-22T13:44:44;26.40;53.90
29539;DHT22;16482;51.046;4.498;2023-06-22T13:47:10;26.40;53.90
29539;DHT22;16482;51.046;4.498;2023-06-22T13:49:37;26.40;53.80
29539;DHT22;16482;51.046;4.498;2023-06-22T13:52:03;26.40;53.80
29539;DHT22;16482;51.046;4.498;2023-06-22T13:54:30;26.40;53.80
29539;DHT22;16482;51.046;4.498;2023-06-22T13:56:56;26.40;53.90
29539;DHT22;16482;51.046;4.498;2023-06-22T13:59:43;26.40;53.90
29539;DHT22;16482;51.046;4.498;2023-06-22T14:02:08;26.50;53.90
29539;DHT22;16482;51.046;4.498;2023-06-22T14:04:34;26.50;53.90
29539;DHT22;16482;51.046;4.498;2023-06-22T14:07:00;26.40;53.80
29539;DHT22;16482;51.046;4.498;2023-06-22T14:09:26;26.40;53.80
29539;DHT22;16482;51.046;4.498;2023-06-22T14:11:54;26.50;53.90
29539;DHT22;16482;51.046;4.498;2023-06-22T14:14:20;26.50;53.90
29539;DHT22;16482;51.046;4.498;2023-06-22T14:16:47;26.50;53.90
29539;DHT22;16482;51.046;4.498;2023-06-22T14:19:17;26.50;53.90
29539;DHT22;16482;51.046;4.498;2023-06-22T14:21:44;26.50;53.80
29539;DHT22;16482;51.046;4.498;2023-06-22T14:24:10;26.50;54.50
29539;DHT22;16482;51.046;4.498;2023-06-22T14:26:36;26.50;53.90
29539;DHT22;16482;51.046;4.498;2023-06-22T14:29:02;26.50;53.80
29539;DHT22;16482;51.046;4.498;2023-06-22T14:31:28;26.40;53.80
29539;DHT22;16482;51.046;4.498;2023-06-22T14:33:53;26.50;53.90
29539;DHT22;16482;51.046;4.498;2023-06-22T14:36:21;26.50;53.90
29539;DHT22;16482;51.046;4.498;2023-06-22T14:38:47;26.50;53.90
29539;DHT22;16482;51.046;4.498;2023-06-22T14:41:13;26.40;53.80
29539;DHT22;16482;51.046;4.498;2023-06-22T14:43:49;26.40;53.70
29539;DHT22;16482;51.046;4.498;2023-06-22T14:46:19;26.50;53.90
29539;DHT22;16482;51.046;4.498;2023-06-22T14:48:45;26.50;53.80
29539;DHT22;16482;51.046;4.498;2023-06-22T14:51:12;26.50;54.00
29539;DHT22;16482;51.046;4.498;2023-06-22T14:53:38;26.50;54.00
29539;DHT22;16482;51.046;4.498;2023-06-22T14:56:04;26.40;53.90
29539;DHT22;16482;51.046;4.498;2023-06-22T14:58:32;26.50;53.90
29539;DHT22;16482;51.046;4.498;2023-06-22T15:01:04;26.50;53.90
29539;DHT22;16482;51.046;4.498;2023-06-22T15:03:34;26.50;54.00
29539;DHT22;16482;51.046;4.498;2023-06-22T15:06:20;26.50;54.00
29539;DHT22;16482;51.046;4.498;2023-06-22T15:08:46;26.50;54.10
29539;DHT22;16482;51.046;4.498;2023-06-22T15:11:12;26.40;54.10
29539;DHT22;16482;51.046;4.498;2023-06-22T15:13:41;26.50;54.20
29539;DHT22;16482;51.046;4.498;2023-06-22T15:16:08;26.50;54.20
29539;DHT22;16482;51.046;4.498;2023-06-22T15:18:34;26.50;54.30
29539;DHT22;16482;51.046;4.498;2023-06-22T15:21:01;26.50;54.40
29539;DHT22;16482;51.046;4.498;2023-06-22T15:23:31;26.50;54.50
29539;DHT22;16482;51.046;4.498;2023-06-22T15:25:59;26.50;54.40
29539;DHT22;16482;51.046;4.498;2023-06-22T15:28:25;26.50;54.60
29539;DHT22;16482;51.046;4.498;2023-06-22T15:30:51;26.50;54.60
29539;DHT22;16482;51.046;4.498;2023-06-22T15:33:28;26.50;54.60
29539;DHT22;16482;51.046;4.498;2023-06-22T15:36:04;26.50;54.60
29539;DHT22;16482;51.046;4.498;2023-06-22T15:38:40;26.50;54.60
29539;DHT22;16482;51.046;4.498;2023-06-22T15:41:10;26.50;54.70
29539;DHT22;16482;51.046;4.498;2023-06-22T15:43:40;26.50;54.70
29539;DHT22;16482;51.046;4.498;2023-06-22T15:46:06;26.50;54.80
29539;DHT22;16482;51.046;4.498;2023-06-22T15:48:32;26.40;54.70
29539;DHT22;16482;51.046;4.498;2023-06-22T15:50:57;26.40;54.70
29539;DHT22;16482;51.046;4.498;2023-06-22T15:53:23;26.40;54.70
29539;DHT22;16482;51.046;4.498;2023-06-22T15:55:49;26.40;54.80
29539;DHT22;16482;51.046;4.498;2023-06-22T15:58:15;26.40;54.80
29539;DHT22;16482;51.046;4.498;2023-06-22T16:00:42;26.40;54.80
29539;DHT22;16482;51.046;4.498;2023-06-22T16:03:08;26.40;54.90
29539;DHT22;16482;51.046;4.498;2023-06-22T16:05:34;26.40;54.90
29539;DHT22;16482;51.046;4.498;2023-06-22T16:08:18;26.40;54.80
29539;DHT22;16482;51.046;4.498;2023-06-22T16:10:44;26.50;54.80
29539;DHT22;16482;51.046;4.498;2023-06-22T16:13:10;26.40;54.90
29539;DHT22;16482;51.046;4.498;2023-06-22T16:15:36;26.40;55.00
29539;DHT22;16482;51.046;4.498;2023-06-22T16:18:02;26.50;55.00
29539;DHT22;16482;51.046;4.498;2023-06-22T16:20:28;26.50;55.10